Time,TemperatureF,DewpointF,PressureIn,WindDirection,WindDirectionDegrees,WindSpeedMPH,WindSpeedGustMPH,Humidity,HourlyPrecipIn,Conditions,Clouds,dailyrainin,SoftwareType,DateUTC
2013-05-06 00:01:00,45.7,40.1,29.45,NNE,26,1.0,2.0,81,0.00,,,0.00,meteohub,2013-05-06 04:01:00,
2013-05-06 00:06:00,45.3,40.1,29.45,NNE,26,0.0,2.0,82,0.00,,,0.00,meteohub,2013-05-06 04:06:00,
2013-05-06 00:11:00,45.1,39.9,29.46,NNE,26,0.0,2.0,82,0.00,,,0.00,meteohub,2013-05-06 04:11:00,
2013-05-06 00:16:00,45.0,39.6,29.46,NNE,26,0.0,1.0,81,0.00,,,0.00,meteohub,2013-05-06 04:16:00,
2013-05-06 00:21:00,45.0,39.7,29.45,NNE,26,1.0,1.0,82,0.00,,,0.00,meteohub,2013-05-06 04:21:00,
2013-05-06 00:26:00,44.8,39.9,29.45,NNE,26,0.0,1.0,83,0.00,,,0.00,meteohub,2013-05-06 04:26:00,
2013-05-06 00:31:00,44.4,39.6,29.45,NNE,26,0.0,1.0,83,0.00,,,0.00,meteohub,2013-05-06 04:31:00,
2013-05-06 00:36:00,44.2,39.7,29.45,NNE,26,0.0,1.0,84,0.00,,,0.00,meteohub,2013-05-06 04:36:00,
2013-05-06 00:41:00,44.2,39.7,29.45,NNE,26,0.0,1.0,84,0.00,,,0.00,meteohub,2013-05-06 04:41:00,
2013-05-06 00:46:00,44.1,39.6,29.46,NNE,26,0.0,1.0,84,0.00,,,0.00,meteohub,2013-05-06 04:46:00,
2013-05-06 00:52:00,43.9,39.4,29.46,NNE,26,0.0,1.0,84,0.00,,,0.00,meteohub,2013-05-06 04:52:00,
2013-05-06 00:57:00,43.7,39.6,29.45,NNE,26,1.0,1.0,85,0.00,,,0.00,meteohub,2013-05-06 04:57:00,
2013-05-06 01:02:00,43.5,39.4,29.45,NNE,26,0.0,2.0,85,0.00,,,0.00,meteohub,2013-05-06 05:02:00,
2013-05-06 01:07:00,43.5,39.6,29.45,NNE,26,0.0,2.0,86,0.00,,,0.00,meteohub,2013-05-06 05:07:00,
2013-05-06 01:12:00,43.5,39.6,29.45,NNE,26,0.0,2.0,86,0.00,,,0.00,meteohub,2013-05-06 05:12:00,
2013-05-06 01:17:00,43.3,39.4,29.46,NNE,26,0.0,2.0,86,0.00,,,0.00,meteohub,2013-05-06 05:17:00,
2013-05-06 01:22:00,43.3,39.4,29.46,NNE,26,0.0,0.0,86,0.00,,,0.00,meteohub,2013-05-06 05:22:00,
2013-05-06 01:27:00,43.3,39.4,29.46,NNE,26,0.0,1.0,86,0.00,,,0.00,meteohub,2013-05-06 05:27:00,
2013-05-06 01:32:00,43.3,39.4,29.46,NNE,26,0.0,1.0,86,0.00,,,0.00,meteohub,2013-05-06 05:32:00,
2013-05-06 01:37:00,43.2,39.2,29.46,NNE,26,0.0,1.0,86,0.00,,,0.00,meteohub,2013-05-06 05:37:00,
2013-05-06 01:42:00,43.2,39.6,29.45,NNE,26,0.0,1.0,87,0.00,,,0.00,meteohub,2013-05-06 05:42:00,
2013-05-06 01:47:00,43.2,39.6,29.45,NNE,26,0.0,1.0,87,0.00,,,0.00,meteohub,2013-05-06 05:47:00,
2013-05-06 01:52:00,43.0,39.4,29.45,NNE,26,0.0,1.0,87,0.00,,,0.00,meteohub,2013-05-06 05:52:00,
2013-05-06 01:57:00,43.0,39.4,29.45,NNE,26,0.0,1.0,87,0.00,,,0.00,meteohub,2013-05-06 05:57:00,
2013-05-06 02:02:00,42.8,39.2,29.46,NNE,26,0.0,1.0,87,0.00,,,0.00,meteohub,2013-05-06 06:02:00,
2013-05-06 02:07:00,42.6,39.0,29.45,NNE,26,0.0,0.0,87,0.00,,,0.00,meteohub,2013-05-06 06:07:00,
2013-05-06 02:12:00,42.6,39.0,29.45,NNE,26,0.0,1.0,87,0.00,,,0.00,meteohub,2013-05-06 06:12:00,
2013-05-06 02:17:00,42.4,38.8,29.45,NNE,26,0.0,1.0,87,0.00,,,0.00,meteohub,2013-05-06 06:17:00,
2013-05-06 02:22:00,42.4,38.8,29.45,NNE,26,0.0,1.0,87,0.00,,,0.00,meteohub,2013-05-06 06:22:00,
2013-05-06 02:27:00,42.4,38.8,29.45,NNE,26,0.0,1.0,87,0.00,,,0.00,meteohub,2013-05-06 06:27:00,
2013-05-06 02:32:00,42.3,38.7,29.45,NNE,26,1.0,1.0,87,0.00,,,0.00,meteohub,2013-05-06 06:32:00,
2013-05-06 02:37:00,42.3,39.0,29.44,NNE,26,0.0,2.0,88,0.00,,,0.00,meteohub,2013-05-06 06:37:00,
2013-05-06 02:42:00,42.1,38.8,29.44,NNE,26,0.0,2.0,88,0.00,,,0.00,meteohub,2013-05-06 06:42:00,
2013-05-06 02:47:00,42.1,38.8,29.44,NNE,26,0.0,2.0,88,0.00,,,0.00,meteohub,2013-05-06 06:47:00,
2013-05-06 02:52:00,41.9,38.7,29.44,NNE,26,0.0,1.0,88,0.00,,,0.00,meteohub,2013-05-06 06:52:00,
2013-05-06 02:57:00,41.9,38.7,29.44,NNE,26,0.0,1.0,88,0.00,,,0.00,meteohub,2013-05-06 06:57:00,
2013-05-06 03:02:00,41.7,38.5,29.44,NNE,26,0.0,1.0,88,0.00,,,0.00,meteohub,2013-05-06 07:02:00,
2013-05-06 03:07:00,41.5,38.3,29.44,NNE,26,0.0,1.0,88,0.00,,,0.00,meteohub,2013-05-06 07:07:00,
2013-05-06 03:12:00,41.4,38.1,29.44,NNE,26,0.0,1.0,88,0.00,,,0.00,meteohub,2013-05-06 07:12:00,
2013-05-06 03:17:00,41.2,37.6,29.44,NNE,26,0.0,0.0,87,0.00,,,0.00,meteohub,2013-05-06 07:17:00,
2013-05-06 03:22:00,40.8,37.6,29.44,NNE,26,0.0,0.0,88,0.00,,,0.00,meteohub,2013-05-06 07:22:00,
2013-05-06 03:27:00,40.8,37.6,29.44,NNE,26,0.0,0.0,88,0.00,,,0.00,meteohub,2013-05-06 07:27:00,
2013-05-06 03:32:00,40.6,37.4,29.44,NNE,26,0.0,0.0,88,0.00,,,0.00,meteohub,2013-05-06 07:32:00,
2013-05-06 03:37:00,40.6,37.4,29.44,NNE,26,0.0,0.0,88,0.00,,,0.00,meteohub,2013-05-06 07:37:00,
2013-05-06 03:42:00,40.5,37.4,29.44,NNE,26,1.0,1.0,89,0.00,,,0.00,meteohub,2013-05-06 07:42:00,
2013-05-06 03:47:00,40.5,37.4,29.44,NNE,26,0.0,1.0,89,0.00,,,0.00,meteohub,2013-05-06 07:47:00,
2013-05-06 03:52:00,40.5,37.4,29.44,NNE,26,0.0,1.0,89,0.00,,,0.00,meteohub,2013-05-06 07:52:00,
2013-05-06 03:57:00,40.6,37.9,29.44,NNE,26,0.0,1.0,90,0.00,,,0.00,meteohub,2013-05-06 07:57:00,
2013-05-06 04:02:00,40.6,37.9,29.44,NNE,26,0.0,1.0,90,0.00,,,0.00,meteohub,2013-05-06 08:02:00,
2013-05-06 04:07:00,40.8,38.1,29.44,NNE,26,0.0,0.0,90,0.00,,,0.00,meteohub,2013-05-06 08:07:00,
2013-05-06 04:12:00,40.8,38.1,29.44,NNE,26,0.0,0.0,90,0.00,,,0.00,meteohub,2013-05-06 08:12:00,
2013-05-06 04:17:00,40.8,38.5,29.44,NNE,26,0.0,0.0,91,0.00,,,0.00,meteohub,2013-05-06 08:17:00,
2013-05-06 04:22:00,41.0,38.7,29.44,NNE,26,0.0,0.0,91,0.00,,,0.00,meteohub,2013-05-06 08:22:00,
2013-05-06 04:27:00,41.2,38.8,29.44,NNE,26,0.0,1.0,91,0.00,,,0.00,meteohub,2013-05-06 08:27:00,
2013-05-06 04:32:00,41.4,39.0,29.44,NNE,26,0.0,1.0,91,0.00,,,0.00,meteohub,2013-05-06 08:32:00,
2013-05-06 04:37:00,41.5,39.2,29.44,NNE,26,0.0,1.0,91,0.00,,,0.00,meteohub,2013-05-06 08:37:00,
2013-05-06 04:42:00,41.7,39.6,29.44,NNE,26,0.0,0.0,92,0.00,,,0.00,meteohub,2013-05-06 08:42:00,
2013-05-06 04:47:00,42.1,39.9,29.44,NNE,26,0.0,1.0,92,0.00,,,0.00,meteohub,2013-05-06 08:47:00,
2013-05-06 04:52:00,42.3,40.1,29.44,NNE,26,0.0,1.0,92,0.00,,,0.00,meteohub,2013-05-06 08:52:00,
2013-05-06 04:57:00,42.3,40.1,29.44,NNE,26,0.0,1.0,92,0.00,,,0.00,meteohub,2013-05-06 08:57:00,
2013-05-06 05:02:00,42.4,40.3,29.44,NNE,26,0.0,1.0,92,0.00,,,0.00,meteohub,2013-05-06 09:02:00,
2013-05-06 05:07:00,42.4,40.3,29.44,NNE,26,0.0,1.0,92,0.00,,,0.00,meteohub,2013-05-06 09:07:00,
2013-05-06 05:12:00,42.6,40.5,29.45,NNE,26,0.0,1.0,92,0.00,,,0.00,meteohub,2013-05-06 09:12:00,
2013-05-06 05:17:00,42.8,40.6,29.45,NNE,26,0.0,1.0,92,0.00,,,0.00,meteohub,2013-05-06 09:17:00,
2013-05-06 05:23:00,43.0,41.2,29.45,SE,145,1.0,1.0,93,0.00,,,0.00,meteohub,2013-05-06 09:23:00,
2013-05-06 05:28:00,43.0,41.2,29.45,SE,145,0.0,2.0,93,0.00,,,0.00,meteohub,2013-05-06 09:28:00,
2013-05-06 05:33:00,43.2,41.4,29.46,SE,145,0.0,2.0,93,0.00,,,0.00,meteohub,2013-05-06 09:33:00,
2013-05-06 05:38:00,43.2,41.4,29.46,SW,221,0.0,2.0,93,0.00,,,0.00,meteohub,2013-05-06 09:38:00,
2013-05-06 05:43:00,43.3,41.5,29.46,ESE,103,0.0,3.0,93,0.00,,,0.00,meteohub,2013-05-06 09:43:00,
2013-05-06 05:48:00,43.3,41.5,29.46,ESE,103,0.0,3.0,93,0.00,,,0.00,meteohub,2013-05-06 09:48:00,
2013-05-06 05:53:00,43.3,41.5,29.46,ESE,103,0.0,3.0,93,0.00,,,0.00,meteohub,2013-05-06 09:53:00,
2013-05-06 05:58:00,43.5,41.7,29.46,ESE,103,0.0,2.0,93,0.00,,,0.00,meteohub,2013-05-06 09:58:00,
2013-05-06 06:03:00,43.5,41.7,29.46,East,101,0.0,2.0,93,0.00,,,0.00,meteohub,2013-05-06 10:03:00,
2013-05-06 06:08:00,43.5,41.7,29.46,SE,136,0.0,3.0,93,0.00,,,0.00,meteohub,2013-05-06 10:08:00,
2013-05-06 06:13:00,43.7,41.7,29.47,ENE,76,1.0,3.0,93,0.00,,,0.00,meteohub,2013-05-06 10:13:00,
2013-05-06 06:18:00,43.7,41.7,29.47,South,180,0.0,3.0,93,0.00,,,0.00,meteohub,2013-05-06 10:18:00,
2013-05-06 06:23:00,43.9,41.9,29.47,WSW,238,1.0,3.0,93,0.00,,,0.00,meteohub,2013-05-06 10:23:00,
2013-05-06 06:28:00,43.9,42.3,29.47,WSW,244,2.0,3.0,94,0.00,,,0.00,meteohub,2013-05-06 10:28:00,
2013-05-06 06:33:00,44.1,42.4,29.47,NE,40,0.0,3.0,94,0.00,,,0.00,meteohub,2013-05-06 10:33:00,
2013-05-06 06:38:00,44.1,42.4,29.47,NE,40,0.0,3.0,94,0.00,,,0.00,meteohub,2013-05-06 10:38:00,
2013-05-06 06:43:00,44.2,42.6,29.47,NE,40,0.0,3.0,94,0.00,,,0.00,meteohub,2013-05-06 10:43:00,
2013-05-06 06:48:00,44.2,42.6,29.47,South,184,0.0,2.0,94,0.00,,,0.00,meteohub,2013-05-06 10:48:00,
2013-05-06 06:53:00,44.2,42.6,29.47,South,184,0.0,2.0,94,0.00,,,0.00,meteohub,2013-05-06 10:53:00,
2013-05-06 06:58:00,44.2,42.6,29.48,NNW,340,0.0,2.0,94,0.00,,,0.00,meteohub,2013-05-06 10:58:00,
2013-05-06 07:03:00,44.2,42.6,29.47,NNW,340,0.0,4.0,94,0.00,,,0.00,meteohub,2013-05-06 11:03:00,
2013-05-06 07:08:00,44.4,42.8,29.48,NNW,340,4.0,4.0,94,0.00,,,0.00,meteohub,2013-05-06 11:08:00,
2013-05-06 07:13:00,44.4,42.8,29.47,ESE,121,0.0,4.0,94,0.00,,,0.00,meteohub,2013-05-06 11:13:00,
2013-05-06 07:18:00,44.4,42.8,29.47,ESE,121,0.0,4.0,94,0.00,,,0.00,meteohub,2013-05-06 11:18:00,
2013-05-06 07:23:00,44.6,43.0,29.47,ESE,121,0.0,4.0,94,0.00,,,0.00,meteohub,2013-05-06 11:23:00,
2013-05-06 07:28:00,44.8,43.2,29.47,ESE,121,0.0,3.0,94,0.00,,,0.00,meteohub,2013-05-06 11:28:00,
2013-05-06 07:33:00,45.0,43.3,29.47,ESE,121,0.0,3.0,94,0.00,,,0.00,meteohub,2013-05-06 11:33:00,
2013-05-06 07:38:00,45.0,43.3,29.47,ESE,121,0.0,3.0,94,0.00,,,0.00,meteohub,2013-05-06 11:38:00,
2013-05-06 07:44:00,45.1,43.5,29.47,SE,132,0.0,1.0,94,0.00,,,0.00,meteohub,2013-05-06 11:44:00,
2013-05-06 07:49:00,45.3,43.7,29.47,SE,132,0.0,1.0,94,0.00,,,0.00,meteohub,2013-05-06 11:49:00,
2013-05-06 07:54:00,45.7,44.4,29.47,NW,317,0.0,2.0,95,0.00,,,0.00,meteohub,2013-05-06 11:54:00,
2013-05-06 07:59:00,45.9,44.4,29.47,NW,317,0.0,2.0,95,0.00,,,0.00,meteohub,2013-05-06 11:59:00,
2013-05-06 08:04:00,46.0,44.6,29.47,NW,317,0.0,2.0,95,0.00,,,0.00,meteohub,2013-05-06 12:04:00,
2013-05-06 08:09:00,46.2,44.8,29.47,NNW,333,0.0,1.0,95,0.00,,,0.00,meteohub,2013-05-06 12:09:00,
2013-05-06 08:14:00,46.6,45.1,29.47,NNW,333,0.0,3.0,95,0.00,,,0.00,meteohub,2013-05-06 12:14:00,
2013-05-06 08:19:00,46.8,45.3,29.47,NNW,333,1.0,3.0,95,0.00,,,0.00,meteohub,2013-05-06 12:19:00,
2013-05-06 08:24:00,46.9,45.5,29.47,SW,227,0.0,3.0,95,0.00,,,0.00,meteohub,2013-05-06 12:24:00,
2013-05-06 08:29:00,46.9,45.5,29.47,SW,227,0.0,2.0,95,0.00,,,0.00,meteohub,2013-05-06 12:29:00,
2013-05-06 08:34:00,47.5,46.0,29.47,SW,227,0.0,2.0,95,0.00,,,0.00,meteohub,2013-05-06 12:34:00,
2013-05-06 08:39:00,47.7,46.2,29.47,SSE,161,0.0,3.0,95,0.00,,,0.00,meteohub,2013-05-06 12:39:00,
2013-05-06 08:44:00,47.8,46.4,29.47,SSE,161,0.0,3.0,95,0.00,,,0.00,meteohub,2013-05-06 12:44:00,
2013-05-06 08:49:00,48.0,46.6,29.47,SSE,161,1.0,3.0,95,0.00,,,0.00,meteohub,2013-05-06 12:49:00,
2013-05-06 08:54:00,48.0,46.6,29.47,East,80,0.0,2.0,95,0.00,,,0.00,meteohub,2013-05-06 12:54:00,
2013-05-06 08:59:00,48.2,46.8,29.47,NE,35,0.0,3.0,95,0.00,,,0.00,meteohub,2013-05-06 12:59:00,
2013-05-06 09:04:00,48.4,46.9,29.48,NE,35,3.0,4.0,95,0.00,,,0.00,meteohub,2013-05-06 13:04:00,
2013-05-06 09:09:00,48.6,47.1,29.48,NE,35,0.0,4.0,95,0.00,,,0.00,meteohub,2013-05-06 13:09:00,
2013-05-06 09:14:00,48.7,47.3,29.48,NE,35,0.0,4.0,95,0.00,,,0.00,meteohub,2013-05-06 13:14:00,
2013-05-06 09:19:00,48.7,47.3,29.48,NE,35,0.0,3.0,95,0.00,,,0.00,meteohub,2013-05-06 13:19:00,
2013-05-06 09:24:00,48.7,47.3,29.48,NE,35,0.0,2.0,95,0.00,,,0.00,meteohub,2013-05-06 13:24:00,
2013-05-06 09:29:00,49.3,47.8,29.48,NW,304,0.0,2.0,95,0.00,,,0.00,meteohub,2013-05-06 13:29:00,
2013-05-06 09:34:00,49.5,48.0,29.48,SE,137,1.0,3.0,95,0.00,,,0.00,meteohub,2013-05-06 13:34:00,
2013-05-06 09:39:00,49.6,48.0,29.48,WSW,249,0.0,3.0,94,0.00,,,0.00,meteohub,2013-05-06 13:39:00,
2013-05-06 09:44:00,49.8,48.2,29.48,WSW,247,0.0,3.0,94,0.00,,,0.00,meteohub,2013-05-06 13:44:00,
2013-05-06 09:49:00,49.8,48.2,29.48,WSW,247,0.0,3.0,94,0.00,,,0.00,meteohub,2013-05-06 13:49:00,
2013-05-06 09:54:00,50.2,48.6,29.48,WSW,248,0.0,2.0,94,0.00,,,0.00,meteohub,2013-05-06 13:54:00,
2013-05-06 09:59:00,50.2,48.6,29.48,WSW,248,1.0,3.0,94,0.00,,,0.00,meteohub,2013-05-06 13:59:00,
2013-05-06 10:04:00,50.4,48.7,29.48,WNW,288,1.0,3.0,94,0.00,,,0.00,meteohub,2013-05-06 14:04:00,
2013-05-06 10:10:00,50.5,48.9,29.48,North,355,2.0,5.0,94,0.00,,,0.00,meteohub,2013-05-06 14:10:00,
2013-05-06 10:15:00,50.9,49.3,29.48,North,355,0.0,5.0,94,0.00,,,0.00,meteohub,2013-05-06 14:15:00,
2013-05-06 10:20:00,51.1,49.1,29.48,North,355,0.0,5.0,93,0.00,,,0.00,meteohub,2013-05-06 14:20:00,
2013-05-06 10:25:00,51.4,49.5,29.48,North,349,0.0,3.0,93,0.00,,,0.00,meteohub,2013-05-06 14:25:00,
2013-05-06 10:30:00,51.4,49.3,29.48,NE,36,1.0,4.0,92,0.00,,,0.00,meteohub,2013-05-06 14:30:00,
2013-05-06 10:35:00,51.6,49.5,29.48,North,355,0.0,4.0,92,0.00,,,0.00,meteohub,2013-05-06 14:35:00,
2013-05-06 10:40:00,51.8,49.6,29.48,North,355,0.0,5.0,92,0.00,,,0.00,meteohub,2013-05-06 14:40:00,
2013-05-06 10:45:00,52.2,49.6,29.48,North,355,0.0,5.0,91,0.00,,,0.00,meteohub,2013-05-06 14:45:00,
2013-05-06 10:50:00,52.3,49.8,29.48,NNE,19,0.0,4.0,91,0.00,,,0.00,meteohub,2013-05-06 14:50:00,
2013-05-06 10:55:00,52.9,50.4,29.48,NNW,332,0.0,4.0,91,0.00,,,0.00,meteohub,2013-05-06 14:55:00,
2013-05-06 11:00:00,53.2,50.7,29.48,NNW,333,0.0,4.0,91,0.00,,,0.00,meteohub,2013-05-06 15:00:00,
2013-05-06 11:05:00,53.8,50.9,29.48,NNW,346,0.0,4.0,90,0.00,,,0.00,meteohub,2013-05-06 15:05:00,
2013-05-06 11:10:00,54.0,50.7,29.48,NNW,346,0.0,2.0,89,0.00,,,0.00,meteohub,2013-05-06 15:10:00,
2013-05-06 11:15:00,54.1,50.9,29.48,NW,324,0.0,3.0,89,0.00,,,0.00,meteohub,2013-05-06 15:15:00,
2013-05-06 11:20:00,54.3,50.9,29.48,NW,325,0.0,3.0,88,0.00,,,0.00,meteohub,2013-05-06 15:20:00,
2013-05-06 11:25:00,54.3,50.5,29.47,SE,145,1.0,4.0,87,0.00,,,0.00,meteohub,2013-05-06 15:25:00,
2013-05-06 11:30:00,54.7,50.9,29.48,WNW,287,0.0,4.0,87,0.00,,,0.00,meteohub,2013-05-06 15:30:00,
2013-05-06 11:35:00,54.9,51.1,29.48,WNW,287,1.0,4.0,87,0.00,,,0.00,meteohub,2013-05-06 15:35:00,
2013-05-06 11:40:00,55.2,51.4,29.47,NE,36,0.0,4.0,87,0.00,,,0.00,meteohub,2013-05-06 15:40:00,
2013-05-06 11:45:00,55.9,52.5,29.47,NE,36,0.0,3.0,88,0.00,,,0.00,meteohub,2013-05-06 15:45:00,
2013-05-06 11:50:00,56.5,52.7,29.47,NE,36,0.0,3.0,87,0.00,,,0.00,meteohub,2013-05-06 15:50:00,
2013-05-06 11:55:00,56.7,52.2,29.47,NNE,15,1.0,5.0,85,0.00,,,0.00,meteohub,2013-05-06 15:55:00,
2013-05-06 12:00:00,56.8,52.3,29.47,NNE,14,1.0,5.0,85,0.00,,,0.00,meteohub,2013-05-06 16:00:00,
2013-05-06 12:05:00,57.4,52.5,29.47,NNW,327,1.0,7.0,84,0.00,,,0.00,meteohub,2013-05-06 16:05:00,
2013-05-06 12:10:00,57.6,52.7,29.47,NNW,339,1.0,7.0,84,0.00,,,0.00,meteohub,2013-05-06 16:10:00,
2013-05-06 12:15:00,57.7,52.9,29.47,NNW,339,1.0,7.0,84,0.00,,,0.00,meteohub,2013-05-06 16:15:00,
2013-05-06 12:21:00,58.3,53.1,29.47,SSE,148,0.0,5.0,83,0.00,,,0.00,meteohub,2013-05-06 16:21:00,
2013-05-06 12:26:00,58.3,52.5,29.47,South,171,0.0,5.0,81,0.00,,,0.00,meteohub,2013-05-06 16:26:00,
2013-05-06 12:31:00,58.5,52.7,29.47,East,100,1.0,5.0,81,0.00,,,0.00,meteohub,2013-05-06 16:31:00,
2013-05-06 12:36:00,58.1,52.0,29.46,NW,320,3.0,6.0,80,0.00,,,0.00,meteohub,2013-05-06 16:36:00,
2013-05-06 12:41:00,57.9,52.2,29.46,SSW,200,2.0,7.0,81,0.00,,,0.00,meteohub,2013-05-06 16:41:00,
2013-05-06 12:46:00,58.3,52.5,29.45,SSW,213,0.0,7.0,81,0.00,,,0.00,meteohub,2013-05-06 16:46:00,
2013-05-06 12:51:00,58.5,53.1,29.45,ESE,120,0.0,7.0,82,0.00,,,0.00,meteohub,2013-05-06 16:51:00,
2013-05-06 12:56:00,59.0,53.6,29.45,NNE,23,1.0,5.0,82,0.00,,,0.00,meteohub,2013-05-06 16:56:00,
2013-05-06 13:01:00,59.0,53.2,29.45,NW,311,1.0,5.0,81,0.00,,,0.00,meteohub,2013-05-06 17:01:00,
2013-05-06 13:06:00,59.2,53.1,29.45,NNW,327,0.0,5.0,80,0.00,,,0.00,meteohub,2013-05-06 17:06:00,
2013-05-06 13:11:00,59.4,52.9,29.45,SW,222,1.0,5.0,79,0.00,,,0.00,meteohub,2013-05-06 17:11:00,
2013-05-06 13:16:00,59.5,53.1,29.45,NNE,21,2.0,5.0,79,0.00,,,0.00,meteohub,2013-05-06 17:16:00,
2013-05-06 13:21:00,59.9,53.8,29.44,NNW,338,0.0,5.0,80,0.00,,,0.00,meteohub,2013-05-06 17:21:00,
2013-05-06 13:26:00,60.3,53.8,29.44,North,5,2.0,6.0,79,0.00,,,0.00,meteohub,2013-05-06 17:26:00,
2013-05-06 13:31:00,61.0,54.7,29.44,ENE,57,4.0,6.0,80,0.00,,,0.00,meteohub,2013-05-06 17:31:00,
2013-05-06 13:36:00,61.2,54.0,29.44,ENE,64,3.0,6.0,77,0.00,,,0.00,meteohub,2013-05-06 17:36:00,
2013-05-06 13:41:00,61.5,54.3,29.44,NNE,17,0.0,5.0,77,0.00,,,0.00,meteohub,2013-05-06 17:41:00,
2013-05-06 13:46:00,62.1,54.3,29.44,NNE,24,0.0,5.0,76,0.00,,,0.00,meteohub,2013-05-06 17:46:00,
2013-05-06 13:51:00,62.8,56.1,29.44,WNW,296,3.0,5.0,79,0.00,,,0.00,meteohub,2013-05-06 17:51:00,
2013-05-06 13:57:00,64.0,57.7,29.43,NW,311,5.0,7.0,80,0.00,,,0.00,meteohub,2013-05-06 17:57:00,
2013-05-06 14:02:00,64.9,56.1,29.43,SW,227,1.0,7.0,73,0.00,,,0.00,meteohub,2013-05-06 18:02:00,
2013-05-06 14:07:00,65.1,55.4,29.43,SW,219,4.0,8.0,71,0.00,,,0.00,meteohub,2013-05-06 18:07:00,
2013-05-06 14:12:00,65.3,55.6,29.43,South,180,0.0,8.0,71,0.00,,,0.00,meteohub,2013-05-06 18:12:00,
2013-05-06 14:17:00,65.1,55.0,29.43,South,176,0.0,8.0,70,0.00,,,0.00,meteohub,2013-05-06 18:17:00,
2013-05-06 14:22:00,64.8,55.2,29.42,SE,125,2.0,8.0,71,0.00,,,0.00,meteohub,2013-05-06 18:22:00,
2013-05-06 14:27:00,64.8,55.9,29.42,East,98,2.0,8.0,73,0.00,,,0.00,meteohub,2013-05-06 18:27:00,
2013-05-06 14:32:00,64.8,55.9,29.42,SSE,147,2.0,5.0,73,0.00,,,0.00,meteohub,2013-05-06 18:32:00,
2013-05-06 14:37:00,65.1,56.7,29.42,South,185,0.0,5.0,74,0.00,,,0.00,meteohub,2013-05-06 18:37:00,
2013-05-06 14:42:00,65.1,55.4,29.42,South,169,1.0,6.0,71,0.00,,,0.00,meteohub,2013-05-06 18:42:00,
2013-05-06 14:47:00,65.1,56.7,29.42,NNW,334,2.0,7.0,74,0.00,,,0.00,meteohub,2013-05-06 18:47:00,
2013-05-06 14:52:00,65.5,55.8,29.42,NNW,338,0.0,7.0,71,0.00,,,0.00,meteohub,2013-05-06 18:52:00,
2013-05-06 14:57:00,65.8,57.0,29.41,South,181,0.0,7.0,73,0.00,,,0.00,meteohub,2013-05-06 18:57:00,
2013-05-06 15:02:00,66.4,55.9,29.41,SSE,165,1.0,5.0,69,0.00,,,0.00,meteohub,2013-05-06 19:02:00,
2013-05-06 15:07:00,66.6,56.8,29.41,NNW,340,2.0,5.0,71,0.00,,,0.00,meteohub,2013-05-06 19:07:00,
2013-05-06 15:12:00,66.2,56.1,29.41,South,182,0.0,9.0,70,0.00,,,0.00,meteohub,2013-05-06 19:12:00,
2013-05-06 15:17:00,66.0,56.3,29.41,SSW,198,0.0,9.0,71,0.00,,,0.00,meteohub,2013-05-06 19:17:00,
2013-05-06 15:22:00,66.2,56.5,29.41,SSW,212,0.0,9.0,71,0.00,,,0.00,meteohub,2013-05-06 19:22:00,
2013-05-06 15:27:00,66.2,56.8,29.40,NNW,338,0.0,5.0,72,0.00,,,0.00,meteohub,2013-05-06 19:27:00,
2013-05-06 15:32:00,66.0,56.3,29.40,South,178,3.0,5.0,71,0.00,,,0.00,meteohub,2013-05-06 19:32:00,
2013-05-06 15:37:00,66.0,55.9,29.40,South,178,1.0,5.0,70,0.00,,,0.00,meteohub,2013-05-06 19:37:00,
2013-05-06 15:42:00,66.0,56.3,29.39,SE,138,2.0,5.0,71,0.00,,,0.00,meteohub,2013-05-06 19:42:00,
2013-05-06 15:47:00,66.2,56.5,29.39,WNW,289,2.0,7.0,71,0.00,,,0.00,meteohub,2013-05-06 19:47:00,
2013-05-06 15:52:00,66.4,57.0,29.39,NW,305,1.0,7.0,72,0.00,,,0.00,meteohub,2013-05-06 19:52:00,
2013-05-06 15:57:00,66.9,57.2,29.39,SE,128,0.0,7.0,71,0.00,,,0.00,meteohub,2013-05-06 19:57:00,
2013-05-06 16:02:00,67.5,57.4,29.39,SW,218,2.0,5.0,70,0.00,,,0.00,meteohub,2013-05-06 20:02:00,
2013-05-06 16:07:00,67.8,57.2,29.39,South,190,2.0,6.0,69,0.00,,,0.00,meteohub,2013-05-06 20:07:00,
2013-05-06 16:12:00,68.0,57.0,29.39,SE,124,4.0,7.0,68,0.00,,,0.00,meteohub,2013-05-06 20:12:00,
2013-05-06 16:17:00,67.6,56.7,29.39,South,171,2.0,7.0,68,0.00,,,0.00,meteohub,2013-05-06 20:17:00,
2013-05-06 16:22:00,67.3,56.8,29.39,South,180,0.0,7.0,69,0.00,,,0.00,meteohub,2013-05-06 20:22:00,
2013-05-06 16:27:00,66.9,56.5,29.39,ENE,67,0.0,5.0,69,0.00,,,0.00,meteohub,2013-05-06 20:27:00,
2013-05-06 16:32:00,66.7,56.3,29.39,SSE,150,0.0,7.0,69,0.00,,,0.00,meteohub,2013-05-06 20:32:00,
2013-05-06 16:37:00,66.6,56.5,29.38,South,184,0.0,7.0,70,0.00,,,0.00,meteohub,2013-05-06 20:37:00,
2013-05-06 16:42:00,66.7,57.0,29.38,North,5,1.0,7.0,71,0.00,,,0.00,meteohub,2013-05-06 20:42:00,
2013-05-06 16:47:00,66.7,57.4,29.39,SSE,151,0.0,4.0,72,0.00,,,0.00,meteohub,2013-05-06 20:47:00,
2013-05-06 16:52:00,66.7,56.7,29.39,NE,53,1.0,4.0,70,0.00,,,0.00,meteohub,2013-05-06 20:52:00,
2013-05-06 16:57:00,66.6,56.8,29.39,SSW,199,0.0,4.0,71,0.00,,,0.00,meteohub,2013-05-06 20:57:00,
2013-05-06 17:02:00,66.4,56.3,29.38,North,5,0.0,7.0,70,0.00,,,0.00,meteohub,2013-05-06 21:02:00,
2013-05-06 17:07:00,66.6,57.2,29.39,SE,124,0.0,7.0,72,0.00,,,0.00,meteohub,2013-05-06 21:07:00,
2013-05-06 17:12:00,66.9,57.6,29.38,South,190,1.0,7.0,72,0.00,,,0.00,meteohub,2013-05-06 21:12:00,
2013-05-06 17:17:00,67.5,58.1,29.38,ENE,73,1.0,3.0,72,0.00,,,0.00,meteohub,2013-05-06 21:17:00,
2013-05-06 17:22:00,67.6,56.7,29.38,ESE,123,0.0,4.0,68,0.00,,,0.00,meteohub,2013-05-06 21:22:00,
2013-05-06 17:27:00,67.5,57.0,29.38,SSW,196,0.0,5.0,69,0.00,,,0.00,meteohub,2013-05-06 21:27:00,
2013-05-06 17:32:00,67.3,56.8,29.38,SSW,203,0.0,5.0,69,0.00,,,0.00,meteohub,2013-05-06 21:32:00,
2013-05-06 17:37:00,67.1,56.7,29.38,NW,320,0.0,5.0,69,0.00,,,0.00,meteohub,2013-05-06 21:37:00,
2013-05-06 17:42:00,66.9,56.5,29.38,NW,320,0.0,3.0,69,0.00,,,0.00,meteohub,2013-05-06 21:42:00,
2013-05-06 17:47:00,66.6,56.1,29.38,SSW,212,0.0,4.0,69,0.00,,,0.00,meteohub,2013-05-06 21:47:00,
2013-05-06 17:52:00,66.4,55.9,29.38,SSW,202,0.0,4.0,69,0.00,,,0.00,meteohub,2013-05-06 21:52:00,
2013-05-06 17:57:00,66.2,56.1,29.38,NW,307,1.0,4.0,70,0.00,,,0.00,meteohub,2013-05-06 21:57:00,
2013-05-06 18:02:00,66.0,56.3,29.38,SE,138,0.0,2.0,71,0.00,,,0.00,meteohub,2013-05-06 22:02:00,
2013-05-06 18:07:00,65.8,56.1,29.38,West,269,3.0,7.0,71,0.00,,,0.00,meteohub,2013-05-06 22:07:00,
2013-05-06 18:12:00,65.7,55.9,29.38,West,262,0.0,7.0,71,0.00,,,0.00,meteohub,2013-05-06 22:12:00,
2013-05-06 18:17:00,65.3,56.1,29.38,SSE,167,1.0,7.0,72,0.00,,,0.00,meteohub,2013-05-06 22:17:00,
2013-05-06 18:22:00,65.1,56.3,29.37,NNE,14,0.0,5.0,73,0.00,,,0.00,meteohub,2013-05-06 22:22:00,
2013-05-06 18:27:00,65.1,55.9,29.37,NNE,14,0.0,4.0,72,0.00,,,0.00,meteohub,2013-05-06 22:27:00,
2013-05-06 18:32:00,64.9,56.1,29.38,SSE,147,0.0,4.0,73,0.00,,,0.00,meteohub,2013-05-06 22:32:00,
2013-05-06 18:37:00,64.9,56.1,29.37,West,261,1.0,2.0,73,0.00,,,0.00,meteohub,2013-05-06 22:37:00,
2013-05-06 18:42:00,64.9,56.1,29.37,West,261,0.0,3.0,73,0.00,,,0.00,meteohub,2013-05-06 22:42:00,
2013-05-06 18:47:00,64.9,56.1,29.37,West,261,0.0,3.0,73,0.00,,,0.00,meteohub,2013-05-06 22:47:00,
2013-05-06 18:52:00,64.9,56.5,29.37,West,261,0.0,3.0,74,0.00,,,0.00,meteohub,2013-05-06 22:52:00,
2013-05-06 18:57:00,64.9,56.5,29.37,West,261,0.0,2.0,74,0.00,,,0.00,meteohub,2013-05-06 22:57:00,
2013-05-06 19:02:00,64.8,56.3,29.37,West,261,0.0,2.0,74,0.00,,,0.00,meteohub,2013-05-06 23:02:00,
2013-05-06 19:07:00,64.8,56.3,29.37,SSW,205,2.0,2.0,74,0.00,,,0.00,meteohub,2013-05-06 23:07:00,
2013-05-06 19:12:00,64.6,55.8,29.37,SSW,207,0.0,3.0,73,0.00,,,0.00,meteohub,2013-05-06 23:12:00,
2013-05-06 19:17:00,64.6,55.8,29.37,SSW,207,0.0,3.0,73,0.00,,,0.00,meteohub,2013-05-06 23:17:00,
2013-05-06 19:22:00,64.2,55.8,29.38,NW,306,0.0,3.0,74,0.00,,,0.00,meteohub,2013-05-06 23:22:00,
2013-05-06 19:27:00,64.2,55.8,29.38,NW,307,0.0,3.0,74,0.00,,,0.00,meteohub,2013-05-06 23:27:00,
2013-05-06 19:32:00,64.0,55.9,29.38,NW,306,0.0,3.0,75,0.00,,,0.00,meteohub,2013-05-06 23:32:00,
2013-05-06 19:37:00,64.0,56.3,29.38,NW,306,0.0,2.0,76,0.00,,,0.00,meteohub,2013-05-06 23:37:00,
2013-05-06 19:42:00,63.9,56.1,29.38,NW,306,0.0,2.0,76,0.00,,,0.00,meteohub,2013-05-06 23:42:00,
2013-05-06 19:47:00,63.7,55.9,29.38,NW,307,0.0,2.0,76,0.00,,,0.00,meteohub,2013-05-06 23:47:00,
2013-05-06 19:52:00,63.3,55.2,29.38,North,355,0.0,2.0,75,0.00,,,0.00,meteohub,2013-05-06 23:52:00,
2013-05-06 19:57:00,63.1,55.4,29.38,North,355,0.0,4.0,76,0.00,,,0.00,meteohub,2013-05-06 23:57:00,
2013-05-06 20:02:00,63.0,55.2,29.38,North,355,0.0,4.0,76,0.00,,,0.00,meteohub,2013-05-07 00:02:00,
2013-05-06 20:07:00,62.6,54.9,29.39,North,355,0.0,4.0,76,0.00,,,0.00,meteohub,2013-05-07 00:07:00,
2013-05-06 20:12:00,62.2,54.5,29.39,North,355,0.0,1.0,76,0.00,,,0.00,meteohub,2013-05-07 00:12:00,
2013-05-06 20:17:00,62.1,54.3,29.39,North,355,0.0,1.0,76,0.00,,,0.00,meteohub,2013-05-07 00:17:00,
2013-05-06 20:22:00,61.9,54.7,29.39,North,355,0.0,1.0,77,0.00,,,0.00,meteohub,2013-05-07 00:22:00,
2013-05-06 20:27:00,61.3,54.5,29.39,North,355,0.0,0.0,78,0.00,,,0.00,meteohub,2013-05-07 00:27:00,
2013-05-06 20:32:00,61.2,54.3,29.39,North,355,0.0,0.0,78,0.00,,,0.00,meteohub,2013-05-07 00:32:00,
2013-05-06 20:37:00,60.6,53.8,29.39,North,355,0.0,0.0,78,0.00,,,0.00,meteohub,2013-05-07 00:37:00,
2013-05-06 20:42:00,60.3,53.8,29.39,North,355,0.0,1.0,79,0.00,,,0.00,meteohub,2013-05-07 00:42:00,
2013-05-06 20:47:00,59.9,53.8,29.39,North,355,0.0,1.0,80,0.00,,,0.00,meteohub,2013-05-07 00:47:00,
2013-05-06 20:52:00,59.5,53.4,29.39,North,355,0.0,1.0,80,0.00,,,0.00,meteohub,2013-05-07 00:52:00,
2013-05-06 20:57:00,59.2,53.4,29.40,NW,322,2.0,2.0,81,0.00,,,0.00,meteohub,2013-05-07 00:57:00,
2013-05-06 21:02:00,59.0,53.2,29.40,NW,322,0.0,3.0,81,0.00,,,0.00,meteohub,2013-05-07 01:02:00,
2013-05-06 21:07:00,58.8,53.4,29.40,NW,322,0.0,3.0,82,0.00,,,0.00,meteohub,2013-05-07 01:07:00,
2013-05-06 21:12:00,58.6,53.2,29.40,NW,322,0.0,3.0,82,0.00,,,0.00,meteohub,2013-05-07 01:12:00,
2013-05-06 21:17:00,58.5,53.1,29.40,NW,322,1.0,1.0,82,0.00,,,0.00,meteohub,2013-05-07 01:17:00,
2013-05-06 21:22:00,58.3,53.1,29.40,NW,322,0.0,3.0,83,0.00,,,0.00,meteohub,2013-05-07 01:22:00,
2013-05-06 21:27:00,57.9,52.7,29.40,NW,322,0.0,3.0,83,0.00,,,0.00,meteohub,2013-05-07 01:27:00,
2013-05-06 21:32:00,57.7,52.7,29.40,NW,322,0.0,3.0,83,0.00,,,0.00,meteohub,2013-05-07 01:32:00,
2013-05-06 21:37:00,57.7,52.9,29.41,NW,322,0.0,1.0,84,0.00,,,0.00,meteohub,2013-05-07 01:37:00,
2013-05-06 21:42:00,57.6,52.7,29.41,NW,322,0.0,1.0,84,0.00,,,0.00,meteohub,2013-05-07 01:42:00,
2013-05-06 21:47:00,57.6,53.1,29.41,NW,322,0.0,1.0,85,0.00,,,0.00,meteohub,2013-05-07 01:47:00,
2013-05-06 21:52:00,57.6,53.1,29.41,NW,322,0.0,1.0,85,0.00,,,0.00,meteohub,2013-05-07 01:52:00,
2013-05-06 21:57:00,57.6,53.4,29.41,NW,322,0.0,1.0,86,0.00,,,0.00,meteohub,2013-05-07 01:57:00,
2013-05-06 22:02:00,57.4,53.2,29.40,NW,322,0.0,1.0,86,0.00,,,0.00,meteohub,2013-05-07 02:02:00,
2013-05-06 22:07:00,57.4,53.2,29.40,NW,322,0.0,1.0,86,0.00,,,0.00,meteohub,2013-05-07 02:07:00,
2013-05-06 22:12:00,57.0,52.9,29.41,NW,322,0.0,0.0,86,0.00,,,0.00,meteohub,2013-05-07 02:12:00,
2013-05-06 22:17:00,57.0,52.9,29.41,NW,322,0.0,0.0,86,0.00,,,0.00,meteohub,2013-05-07 02:17:00,
2013-05-06 22:22:00,56.8,52.7,29.41,NW,322,0.0,0.0,86,0.00,,,0.00,meteohub,2013-05-07 02:22:00,
2013-05-06 22:27:00,56.7,52.5,29.40,NW,322,0.0,1.0,86,0.00,,,0.00,meteohub,2013-05-07 02:27:00,
2013-05-06 22:32:00,56.5,52.3,29.40,NW,322,0.0,1.0,86,0.00,,,0.00,meteohub,2013-05-07 02:32:00,
2013-05-06 22:37:00,56.1,52.0,29.40,NW,322,0.0,1.0,86,0.00,,,0.00,meteohub,2013-05-07 02:37:00,
2013-05-06 22:42:00,55.9,51.8,29.40,NW,322,0.0,1.0,86,0.00,,,0.00,meteohub,2013-05-07 02:42:00,
2013-05-06 22:47:00,55.8,51.6,29.40,NW,322,0.0,1.0,86,0.00,,,0.00,meteohub,2013-05-07 02:47:00,
2013-05-06 22:52:00,55.8,51.6,29.40,NW,322,0.0,1.0,86,0.00,,,0.00,meteohub,2013-05-07 02:52:00,
2013-05-06 22:57:00,55.4,51.3,29.40,NW,322,0.0,1.0,86,0.00,,,0.00,meteohub,2013-05-07 02:57:00,
2013-05-06 23:02:00,55.2,51.4,29.40,NW,322,0.0,1.0,87,0.00,,,0.00,meteohub,2013-05-07 03:02:00,
2013-05-06 23:07:00,55.0,51.3,29.40,NW,322,0.0,1.0,87,0.00,,,0.00,meteohub,2013-05-07 03:07:00,
2013-05-06 23:12:00,55.0,51.3,29.40,NW,322,0.0,1.0,87,0.00,,,0.00,meteohub,2013-05-07 03:12:00,
2013-05-06 23:17:00,54.9,51.4,29.40,NW,322,0.0,1.0,88,0.00,,,0.00,meteohub,2013-05-07 03:17:00,
2013-05-06 23:22:00,54.7,51.3,29.40,NW,322,0.0,1.0,88,0.00,,,0.00,meteohub,2013-05-07 03:22:00,
2013-05-06 23:27:00,54.7,51.3,29.40,NW,322,0.0,0.0,88,0.00,,,0.00,meteohub,2013-05-07 03:27:00,
2013-05-06 23:32:00,54.5,51.1,29.39,NW,322,1.0,2.0,88,0.00,,,0.00,meteohub,2013-05-07 03:32:00,
2013-05-06 23:37:00,54.3,51.1,29.39,NW,322,0.0,2.0,89,0.00,,,0.00,meteohub,2013-05-07 03:37:00,
2013-05-06 23:42:00,54.1,50.9,29.39,NW,322,0.0,2.0,89,0.00,,,0.00,meteohub,2013-05-07 03:42:00,
2013-05-06 23:47:00,54.1,50.9,29.39,NW,322,0.0,1.0,89,0.00,,,0.00,meteohub,2013-05-07 03:47:00,
2013-05-06 23:52:00,54.1,50.9,29.39,NW,322,0.0,1.0,89,0.00,,,0.00,meteohub,2013-05-07 03:52:00,
2013-05-06 23:57:00,54.0,50.7,29.39,NW,322,0.0,1.0,89,0.00,,,0.00,meteohub,2013-05-07 03:57:00,